createdAt,value
2022-09-17T00:02:01.878Z,99.90
2022-09-17T00:04:28.746Z,99.90
2022-09-17T00:06:55.533Z,99.90
2022-09-17T00:09:22.298Z,99.90
2022-09-17T00:11:49.025Z,99.90
2022-09-17T00:14:16.678Z,99.90
2022-09-17T00:16:45.191Z,99.90
2022-09-17T00:19:19.448Z,99.90
2022-09-17T00:21:46.477Z,99.90
2022-09-17T00:24:14.227Z,99.90
2022-09-17T00:26:41.294Z,99.90
2022-09-17T00:29:08.553Z,99.90
2022-09-17T00:31:36.405Z,99.90
2022-09-17T00:34:04.032Z,99.90
2022-09-17T00:36:31.132Z,99.90
2022-09-17T00:38:58.775Z,99.90
2022-09-17T00:41:26.663Z,99.90
2022-09-17T00:43:54.652Z,99.90
2022-09-17T00:46:44.548Z,99.90
2022-09-17T00:49:14.550Z,99.90
2022-09-17T00:52:01.494Z,99.90
2022-09-17T00:54:28.353Z,99.90
2022-09-17T00:56:55.337Z,99.90
2022-09-17T00:59:22.291Z,99.90
2022-09-17T01:01:49.156Z,99.90
2022-09-17T01:04:19.753Z,99.90
2022-09-17T01:06:58.165Z,99.90
2022-09-17T01:09:31.114Z,99.90
2022-09-17T01:12:06.769Z,99.90
2022-09-17T01:14:36.490Z,99.90
2022-09-17T01:17:22.145Z,99.90
2022-09-17T01:20:01.190Z,99.90
2022-09-17T01:22:39.216Z,99.90
2022-09-17T01:25:32.179Z,99.90
2022-09-17T01:28:17.817Z,99.90
2022-09-17T01:31:02.978Z,99.90
2022-09-17T01:33:32.788Z,99.90
2022-09-17T01:36:08.833Z,99.90
2022-09-17T01:38:40.876Z,99.90
2022-09-17T01:41:16.890Z,99.90
2022-09-17T01:43:51.573Z,99.90
2022-09-17T01:46:22.191Z,99.90
2022-09-17T01:48:50.509Z,99.90
2022-09-17T01:51:19.932Z,99.90
2022-09-17T01:53:55.074Z,99.90
2022-09-17T01:56:23.618Z,99.90
2022-09-17T01:59:09.513Z,99.90
2022-09-17T02:01:38.632Z,99.90
2022-09-17T02:04:08.183Z,99.90
2022-09-17T02:06:37.718Z,99.90
2022-09-17T02:09:15.464Z,99.90
2022-09-17T02:11:44.291Z,99.90
2022-09-17T02:14:14.689Z,99.90
2022-09-17T02:16:47.756Z,99.90
2022-09-17T02:19:27.006Z,99.90
2022-09-17T02:22:06.020Z,99.90
2022-09-17T02:24:41.016Z,99.90
2022-09-17T02:27:19.354Z,99.90
2022-09-17T02:29:46.083Z,99.90
2022-09-17T02:32:12.979Z,99.90
2022-09-17T02:34:40.085Z,99.90
2022-09-17T02:37:06.969Z,99.90
2022-09-17T02:39:34.175Z,99.90
2022-09-17T02:42:16.158Z,99.90
2022-09-17T02:45:01.159Z,99.90
2022-09-17T02:47:46.912Z,99.90
2022-09-17T02:50:13.566Z,99.90
2022-09-17T02:52:43.429Z,99.90
2022-09-17T02:55:13.114Z,99.90
2022-09-17T02:57:43.895Z,99.90
2022-09-17T03:00:18.029Z,99.90
2022-09-17T03:02:50.872Z,99.90
2022-09-17T03:05:18.639Z,99.90
2022-09-17T03:07:45.382Z,99.90
2022-09-17T03:10:12.126Z,99.90
2022-09-17T03:12:39.341Z,99.90
2022-09-17T03:15:06.373Z,99.90
2022-09-17T03:17:33.168Z,99.90
2022-09-17T03:19:59.908Z,99.90
2022-09-17T03:22:26.712Z,99.90
2022-09-17T03:24:53.490Z,99.90
2022-09-17T03:27:20.204Z,99.90
2022-09-17T03:29:46.943Z,99.90
2022-09-17T03:32:13.686Z,99.90
2022-09-17T03:34:40.408Z,99.90
2022-09-17T03:37:08.680Z,99.90
2022-09-17T03:39:35.400Z,99.90
2022-09-17T03:42:02.099Z,99.90
2022-09-17T03:44:28.811Z,99.90
2022-09-17T03:49:22.742Z,99.90
2022-09-17T03:51:49.639Z,99.90
2022-09-17T03:54:16.304Z,99.90
2022-09-17T03:56:43.088Z,99.90
2022-09-17T03:59:09.776Z,99.90
2022-09-17T04:01:36.539Z,99.90
2022-09-17T04:04:03.917Z,99.90
2022-09-17T04:06:30.817Z,99.90
2022-09-17T04:08:57.572Z,99.90
2022-09-17T04:11:24.281Z,99.90
2022-09-17T04:13:51.111Z,99.90
2022-09-17T04:16:17.945Z,99.90
2022-09-17T04:18:44.804Z,99.90
2022-09-17T04:21:11.562Z,99.90
2022-09-17T04:23:38.313Z,99.90
2022-09-17T04:26:05.089Z,99.90
2022-09-17T04:28:31.823Z,99.90
2022-09-17T04:30:58.566Z,99.90
2022-09-17T04:33:25.410Z,99.90
2022-09-17T04:35:52.153Z,99.90
2022-09-17T04:38:18.937Z,99.90
2022-09-17T04:40:45.764Z,99.90
2022-09-17T04:43:12.635Z,99.90
2022-09-17T04:45:39.436Z,99.90
2022-09-17T04:48:06.236Z,99.90
2022-09-17T04:50:33.038Z,99.90
2022-09-17T04:52:59.789Z,99.90
2022-09-17T04:55:26.537Z,99.90
2022-09-17T04:57:53.688Z,99.90
2022-09-17T05:00:21.480Z,99.90
2022-09-17T05:02:49.478Z,99.90
2022-09-17T05:05:17.392Z,99.90
2022-09-17T05:07:44.216Z,99.90
2022-09-17T05:10:11.698Z,99.90
2022-09-17T05:12:38.459Z,99.90
2022-09-17T05:15:05.582Z,99.90
2022-09-17T05:17:32.546Z,99.90
2022-09-17T05:19:59.266Z,99.90
2022-09-17T05:22:26.037Z,99.90
2022-09-17T05:24:52.719Z,99.90
2022-09-17T05:27:19.431Z,99.90
2022-09-17T05:29:46.314Z,99.90
2022-09-17T05:32:13.121Z,99.90
2022-09-17T05:34:39.900Z,99.90
2022-09-17T05:37:06.598Z,99.90
2022-09-17T05:39:33.293Z,99.90
2022-09-17T05:42:00.033Z,99.90
2022-09-17T05:44:26.822Z,99.90
2022-09-17T05:46:53.900Z,99.90
2022-09-17T05:49:21.040Z,99.90
2022-09-17T05:51:49.808Z,99.90
2022-09-17T05:54:16.562Z,99.90
2022-09-17T05:56:43.345Z,99.90
2022-09-17T05:59:10.108Z,99.90
2022-09-17T06:01:36.827Z,99.90
2022-09-17T06:04:04.348Z,99.90
2022-09-17T06:06:31.053Z,99.90
2022-09-17T06:09:00.760Z,99.90
2022-09-17T06:11:27.619Z,99.90
2022-09-17T06:13:55.026Z,99.90
2022-09-17T06:16:22.562Z,99.90
2022-09-17T06:18:49.497Z,99.90
2022-09-17T06:21:16.429Z,99.90
2022-09-17T06:23:43.316Z,99.90
2022-09-17T06:26:10.151Z,99.90
2022-09-17T06:28:41.432Z,99.90
2022-09-17T06:31:09.861Z,99.90
2022-09-17T06:33:36.606Z,99.90
2022-09-17T06:36:08.531Z,99.90
2022-09-17T06:38:37.945Z,99.90
2022-09-17T06:41:04.758Z,99.90
2022-09-17T06:43:31.749Z,99.90
2022-09-17T06:45:59.666Z,99.90
2022-09-17T06:48:27.393Z,99.90
2022-09-17T06:50:54.573Z,99.90
2022-09-17T06:53:21.934Z,99.90
2022-09-17T06:55:48.824Z,99.90
2022-09-17T06:58:15.583Z,99.90
2022-09-17T07:00:42.540Z,99.90
2022-09-17T07:03:09.783Z,99.90
2022-09-17T07:08:04.100Z,99.80
2022-09-17T07:10:31.348Z,99.40
2022-09-17T07:12:58.372Z,99.80
2022-09-17T07:15:25.192Z,97.80
2022-09-17T07:17:51.950Z,97.80
2022-09-17T07:20:18.870Z,98.00
2022-09-17T07:22:45.730Z,96.60
2022-09-17T07:25:13.511Z,95.30
2022-09-17T07:27:40.224Z,95.60
2022-09-17T07:30:07.402Z,96.10
2022-09-17T07:32:34.213Z,96.30
2022-09-17T07:35:00.959Z,96.40
2022-09-17T07:37:27.764Z,94.00
2022-09-17T07:39:54.498Z,94.30
2022-09-17T07:42:21.328Z,94.70
2022-09-17T07:44:48.046Z,94.50
2022-09-17T07:47:15.006Z,94.70
2022-09-17T07:49:42.343Z,94.20
2022-09-17T07:52:09.088Z,93.50
2022-09-17T07:54:35.863Z,94.60
2022-09-17T07:57:02.815Z,94.30
2022-09-17T07:59:29.557Z,94.50
2022-09-17T08:01:56.544Z,93.40
2022-09-17T08:04:23.376Z,94.00
2022-09-17T08:06:50.088Z,94.30
2022-09-17T08:09:17.197Z,93.50
2022-09-17T08:11:55.550Z,92.70
2022-09-17T08:14:28.397Z,93.10
2022-09-17T08:16:56.465Z,92.60
2022-09-17T08:19:23.205Z,92.80
2022-09-17T08:21:49.984Z,92.90
2022-09-17T08:24:16.742Z,92.60
2022-09-17T08:26:43.530Z,91.00
2022-09-17T08:29:10.292Z,92.20
2022-09-17T08:31:37.280Z,92.10
2022-09-17T08:34:07.166Z,92.10
2022-09-17T08:36:33.951Z,92.80
2022-09-17T08:39:00.822Z,91.60
2022-09-17T08:41:37.061Z,91.80
2022-09-17T08:44:03.825Z,91.40
2022-09-17T08:46:38.206Z,92.00
2022-09-17T08:49:13.269Z,91.10
2022-09-17T08:51:46.098Z,91.20
2022-09-17T08:54:31.769Z,90.60
2022-09-17T08:57:09.344Z,91.30
2022-09-17T08:59:43.444Z,92.90
2022-09-17T09:02:22.011Z,88.70
2022-09-17T09:05:07.812Z,90.30
2022-09-17T09:07:36.960Z,89.20
2022-09-17T09:10:03.694Z,90.80
2022-09-17T09:12:33.045Z,91.00
2022-09-17T09:15:02.575Z,90.60
2022-09-17T09:17:34.258Z,90.70
2022-09-17T09:20:01.119Z,89.60
2022-09-17T09:22:47.948Z,90.90
2022-09-17T09:25:22.783Z,90.20
2022-09-17T09:27:52.455Z,90.10
2022-09-17T09:30:19.588Z,91.40
2022-09-17T09:33:00.577Z,91.20
2022-09-17T09:35:28.750Z,90.10
2022-09-17T09:37:58.461Z,90.50
2022-09-17T09:40:28.382Z,90.00
2022-09-17T09:42:57.575Z,90.00
2022-09-17T09:45:49.462Z,89.90
2022-09-17T09:48:35.009Z,87.60
2022-09-17T09:51:24.479Z,86.90
2022-09-17T09:53:57.441Z,90.00
2022-09-17T09:56:24.212Z,89.00
2022-09-17T09:58:50.884Z,89.60
2022-09-17T10:01:18.994Z,90.20
2022-09-17T10:03:46.325Z,90.70
2022-09-17T10:06:14.104Z,91.20
2022-09-17T10:08:42.114Z,90.50
2022-09-17T10:11:09.215Z,90.70
2022-09-17T10:13:36.672Z,90.40
2022-09-17T10:16:15.845Z,89.60
2022-09-17T10:18:42.678Z,90.30
2022-09-17T10:21:19.199Z,90.20
2022-09-17T10:23:46.478Z,90.50
2022-09-17T10:26:36.568Z,90.80
2022-09-17T10:29:04.736Z,91.20
2022-09-17T10:31:50.292Z,91.50
2022-09-17T10:34:23.259Z,91.20
2022-09-17T10:36:50.161Z,91.90
2022-09-17T10:39:30.457Z,92.10
2022-09-17T10:41:58.395Z,91.80
2022-09-17T10:44:26.835Z,91.90
2022-09-17T10:46:53.845Z,92.10
2022-09-17T10:49:39.559Z,91.10
2022-09-17T10:52:15.464Z,92.00
2022-09-17T10:54:48.259Z,91.30
2022-09-17T10:57:24.415Z,91.80
2022-09-17T11:00:10.104Z,91.10
2022-09-17T11:02:55.820Z,92.00
2022-09-17T11:05:38.841Z,91.10
2022-09-17T11:08:11.251Z,91.20
2022-09-17T11:10:49.874Z,91.50
2022-09-17T11:13:35.342Z,91.30
2022-09-17T11:16:02.143Z,91.50
2022-09-17T11:18:28.974Z,91.30
2022-09-17T11:21:08.483Z,91.30
2022-09-17T11:23:55.481Z,90.50
2022-09-17T11:26:32.503Z,91.00
2022-09-17T11:29:05.725Z,90.90
2022-09-17T11:31:48.030Z,91.50
2022-09-17T11:34:36.609Z,91.30
2022-09-17T11:37:09.312Z,91.50
2022-09-17T11:39:44.165Z,91.80
2022-09-17T11:42:13.923Z,91.70
2022-09-17T11:44:43.965Z,92.40
2022-09-17T11:47:14.752Z,92.40
2022-09-17T11:49:41.531Z,92.00
2022-09-17T11:52:11.926Z,91.90
2022-09-17T11:54:47.906Z,91.50
2022-09-17T11:57:41.066Z,92.00
2022-09-17T12:00:18.656Z,92.00
2022-09-17T12:02:54.768Z,92.00
2022-09-17T12:05:28.362Z,91.40
2022-09-17T12:08:11.254Z,90.90
2022-09-17T12:10:40.647Z,90.70
2022-09-17T12:13:07.381Z,90.40
2022-09-17T12:15:35.407Z,90.70
2022-09-17T12:18:33.491Z,90.70
2022-09-17T12:21:02.071Z,90.20
2022-09-17T12:23:47.597Z,90.20
2022-09-17T12:26:31.997Z,89.50
2022-09-17T12:29:01.744Z,90.10
2022-09-17T12:31:34.793Z,90.50
2022-09-17T12:34:24.951Z,89.60
2022-09-17T12:36:55.874Z,90.50
2022-09-17T12:39:31.752Z,90.00
2022-09-17T12:42:15.925Z,90.20
2022-09-17T12:44:45.869Z,89.40
2022-09-17T12:47:21.519Z,89.10
2022-09-17T12:49:48.246Z,87.60
2022-09-17T12:52:29.894Z,89.20
2022-09-17T12:55:02.664Z,89.30
2022-09-17T12:57:40.961Z,90.20
2022-09-17T13:00:11.988Z,90.10
2022-09-17T13:02:45.787Z,89.60
2022-09-17T13:05:35.813Z,90.00
2022-09-17T13:08:02.914Z,87.20
2022-09-17T13:10:38.868Z,88.30
2022-09-17T13:13:17.903Z,88.50
2022-09-17T13:15:54.006Z,87.50
2022-09-17T13:18:27.846Z,87.20
2022-09-17T13:20:54.665Z,88.50
2022-09-17T13:23:32.254Z,87.40
2022-09-17T13:25:59.077Z,88.60
2022-09-17T13:28:36.422Z,89.00
2022-09-17T13:31:03.610Z,89.60
2022-09-17T13:33:49.172Z,90.00
2022-09-17T13:36:34.780Z,89.40
2022-09-17T13:39:02.082Z,89.50
2022-09-17T13:41:30.194Z,89.10
2022-09-17T13:43:57.054Z,88.70
2022-09-17T13:46:24.699Z,88.50
2022-09-17T13:48:53.915Z,88.60
2022-09-17T13:51:40.913Z,89.30
2022-09-17T13:54:09.532Z,88.00
2022-09-17T13:56:36.210Z,88.90
2022-09-17T13:59:14.970Z,88.90
2022-09-17T14:02:00.365Z,89.30
2022-09-17T14:04:33.193Z,89.80
2022-09-17T14:06:59.983Z,89.60
2022-09-17T14:09:38.521Z,90.00
2022-09-17T14:12:23.084Z,90.30
2022-09-17T14:14:51.854Z,90.30
2022-09-17T14:17:37.305Z,90.10
2022-09-17T14:20:04.288Z,89.70
2022-09-17T14:22:31.097Z,90.00
2022-09-17T14:24:58.366Z,89.70
2022-09-17T14:27:46.313Z,89.90
2022-09-17T14:30:13.261Z,89.30
2022-09-17T14:32:58.325Z,90.20
2022-09-17T14:35:43.919Z,90.20
2022-09-17T14:38:15.374Z,90.00
2022-09-17T14:40:46.335Z,90.00
2022-09-17T14:43:28.711Z,90.00
2022-09-17T14:45:55.853Z,90.00
2022-09-17T14:48:29.908Z,90.50
2022-09-17T14:51:15.651Z,90.30
2022-09-17T14:53:42.766Z,90.20
2022-09-17T14:56:14.065Z,90.70
2022-09-17T14:58:42.486Z,90.70
2022-09-17T15:01:35.706Z,90.60
2022-09-17T15:04:14.817Z,90.80
2022-09-17T15:06:42.573Z,90.60
2022-09-17T15:09:16.387Z,90.90
2022-09-17T15:11:45.076Z,91.10
2022-09-17T15:14:20.117Z,91.20
2022-09-17T15:19:17.213Z,91.10
2022-09-17T15:21:44.727Z,91.70
2022-09-17T15:24:20.460Z,91.50
2022-09-17T15:26:49.474Z,91.60
2022-09-17T15:29:16.253Z,91.40
2022-09-17T15:31:43.068Z,91.70
2022-09-17T15:34:12.984Z,91.70
2022-09-17T15:36:40.112Z,91.60
2022-09-17T15:39:25.718Z,91.90
2022-09-17T15:41:56.501Z,91.80
2022-09-17T15:44:32.052Z,91.80
2022-09-17T15:47:25.234Z,92.10
2022-09-17T15:50:10.989Z,92.20
2022-09-17T15:52:37.842Z,92.00
2022-09-17T15:55:04.896Z,92.30
2022-09-17T15:57:32.706Z,92.20
2022-09-17T16:00:12.480Z,92.60
2022-09-17T16:02:40.361Z,92.60
2022-09-17T16:05:13.392Z,93.00
2022-09-17T16:07:40.689Z,93.20
2022-09-17T16:10:08.426Z,93.20
2022-09-17T16:12:35.171Z,93.20
2022-09-17T16:15:01.932Z,93.50
2022-09-17T16:17:30.369Z,93.30
2022-09-17T16:19:57.086Z,93.10
2022-09-17T16:22:23.885Z,93.10
2022-09-17T16:24:50.668Z,93.20
2022-09-17T16:27:19.843Z,93.00
2022-09-17T16:29:46.956Z,93.20
2022-09-17T16:32:13.758Z,93.20
2022-09-17T16:34:40.515Z,93.20
2022-09-17T16:37:08.874Z,93.30
2022-09-17T16:39:35.600Z,93.40
2022-09-17T16:42:02.334Z,93.40
2022-09-17T16:44:29.108Z,93.60
2022-09-17T16:46:55.901Z,93.60
2022-09-17T16:49:22.628Z,93.80
2022-09-17T16:51:49.422Z,93.70
2022-09-17T16:54:16.377Z,93.90
2022-09-17T16:59:10.279Z,93.70
2022-09-17T17:01:37.079Z,94.10
2022-09-17T17:04:22.445Z,93.90
2022-09-17T17:06:49.172Z,94.10
2022-09-17T17:09:15.970Z,94.20
2022-09-17T17:11:42.702Z,94.30
2022-09-17T17:14:14.506Z,94.10
2022-09-17T17:16:41.706Z,94.30
2022-09-17T17:19:08.618Z,94.10
2022-09-17T17:21:35.345Z,94.20
2022-09-17T17:24:02.244Z,94.20
2022-09-17T17:26:29.153Z,94.30
2022-09-17T17:28:55.867Z,94.50
2022-09-17T17:31:22.754Z,94.60
2022-09-17T17:33:49.646Z,94.70
2022-09-17T17:36:16.466Z,94.60
2022-09-17T17:38:43.406Z,94.60
2022-09-17T17:41:14.154Z,94.60
2022-09-17T17:43:41.352Z,94.80
2022-09-17T17:46:09.350Z,94.80
2022-09-17T17:48:36.710Z,94.80
2022-09-17T17:51:07.706Z,94.90
2022-09-17T17:53:34.760Z,95.10
2022-09-17T17:56:02.656Z,95.20
2022-09-17T17:58:29.633Z,95.20
2022-09-17T18:00:56.418Z,95.10
2022-09-17T18:03:23.659Z,95.10
2022-09-17T18:05:54.228Z,94.90
2022-09-17T18:08:21.159Z,95.10
2022-09-17T18:10:51.853Z,95.20
2022-09-17T18:13:18.593Z,95.10
2022-09-17T18:15:55.499Z,95.10
2022-09-17T18:18:23.052Z,95.10
2022-09-17T18:20:50.485Z,95.00
2022-09-17T18:23:17.729Z,95.20
2022-09-17T18:25:58.468Z,95.00
2022-09-17T18:28:25.682Z,95.10
2022-09-17T18:30:52.805Z,95.00
2022-09-17T18:33:24.747Z,95.20
2022-09-17T18:35:52.990Z,95.10
2022-09-17T18:38:19.994Z,94.90
2022-09-17T18:40:47.588Z,95.00
2022-09-17T18:43:14.567Z,95.00
2022-09-17T18:45:41.565Z,95.10
2022-09-17T18:48:08.716Z,95.20
2022-09-17T18:50:35.893Z,95.40
2022-09-17T18:53:02.903Z,95.60
2022-09-17T18:55:30.217Z,95.60
2022-09-17T18:57:57.075Z,95.40
2022-09-17T19:00:24.010Z,95.70
2022-09-17T19:02:50.798Z,95.60
2022-09-17T19:05:17.869Z,95.80
2022-09-17T19:07:48.019Z,95.60
2022-09-17T19:10:15.215Z,95.50
2022-09-17T19:12:42.047Z,95.60
2022-09-17T19:15:09.297Z,95.50
2022-09-17T19:17:36.180Z,95.30
2022-09-17T19:20:03.255Z,95.40
2022-09-17T19:22:29.994Z,95.00
2022-09-17T19:24:56.757Z,95.20
2022-09-17T19:27:23.539Z,95.50
2022-09-17T19:29:50.270Z,95.50
2022-09-17T19:32:17.089Z,95.60
2022-09-17T19:34:44.065Z,95.50
2022-09-17T19:37:11.106Z,95.50
2022-09-17T19:39:37.897Z,95.60
2022-09-17T19:42:04.871Z,95.40
2022-09-17T19:44:31.573Z,95.40
2022-09-17T19:46:58.388Z,95.70
2022-09-17T19:49:25.227Z,95.60
2022-09-17T19:51:51.966Z,95.60
2022-09-17T19:54:18.779Z,95.50
2022-09-17T19:56:45.492Z,95.70
2022-09-17T20:01:39.619Z,95.70
2022-09-17T20:04:06.464Z,95.90
2022-09-17T20:06:33.788Z,95.80
2022-09-17T20:09:00.558Z,96.10
2022-09-17T20:11:27.608Z,96.10
2022-09-17T20:13:58.103Z,96.30
2022-09-17T20:16:25.216Z,96.40
2022-09-17T20:18:52.400Z,96.50
2022-09-17T20:21:21.013Z,96.70
2022-09-17T20:23:48.442Z,96.50
2022-09-17T20:26:15.804Z,96.50
2022-09-17T20:28:42.646Z,96.70
2022-09-17T20:31:14.226Z,96.70
2022-09-17T20:33:41.389Z,96.80
2022-09-17T20:36:10.595Z,97.20
2022-09-17T20:41:24.424Z,97.10
2022-09-17T20:43:52.577Z,97.70
2022-09-17T20:46:23.682Z,97.50
2022-09-17T20:48:52.996Z,97.60
2022-09-17T20:51:22.826Z,97.60
2022-09-17T20:53:50.319Z,97.70
2022-09-17T20:56:18.709Z,97.50
2022-09-17T20:58:46.101Z,97.60
2022-09-17T21:01:14.133Z,97.60
2022-09-17T21:03:41.324Z,97.60
2022-09-17T21:06:08.279Z,97.80
2022-09-17T21:08:35.071Z,97.70
2022-09-17T21:11:05.014Z,98.00
2022-09-17T21:13:31.732Z,98.20
2022-09-17T21:15:59.329Z,98.50
2022-09-17T21:18:26.644Z,98.60
2022-09-17T21:20:53.732Z,98.70
2022-09-17T21:23:27.227Z,99.20
2022-09-17T21:26:01.161Z,99.90
2022-09-17T21:28:29.563Z,99.90
2022-09-17T21:31:01.508Z,99.90
2022-09-17T21:33:28.390Z,99.90
2022-09-17T21:35:55.113Z,99.90
2022-09-17T21:38:21.894Z,99.90
2022-09-17T21:40:55.565Z,99.90
2022-09-17T21:43:22.477Z,99.90
2022-09-17T21:46:01.474Z,99.90
2022-09-17T21:48:29.132Z,99.90
2022-09-17T21:51:09.348Z,99.90
2022-09-17T21:53:36.577Z,99.90
2022-09-17T21:56:03.454Z,99.90
2022-09-17T21:58:30.315Z,99.90
2022-09-17T22:00:57.098Z,99.90
2022-09-17T22:03:23.825Z,99.90
2022-09-17T22:05:50.562Z,99.90
2022-09-17T22:08:17.319Z,99.90
2022-09-17T22:10:44.072Z,99.90
2022-09-17T22:13:10.798Z,99.90
2022-09-17T22:15:37.555Z,99.90
2022-09-17T22:20:33.466Z,99.90
2022-09-17T22:23:00.244Z,99.90
2022-09-17T22:25:27.185Z,99.90
2022-09-17T22:28:16.862Z,99.90
2022-09-17T22:30:40.716Z,99.90
2022-09-17T22:33:07.493Z,99.90
2022-09-17T22:35:34.236Z,99.90
2022-09-17T22:38:01.020Z,99.90
2022-09-17T22:40:27.759Z,99.90
2022-09-17T22:42:54.791Z,99.90
2022-09-17T22:45:21.556Z,99.90
2022-09-17T22:47:48.313Z,99.90
2022-09-17T22:50:15.037Z,99.90
2022-09-17T22:52:41.724Z,99.90
2022-09-17T22:55:08.552Z,99.90
2022-09-17T22:57:35.278Z,99.90
2022-09-17T23:00:02.196Z,99.90
2022-09-17T23:02:28.939Z,99.90
2022-09-17T23:04:55.695Z,99.90
2022-09-17T23:07:22.412Z,99.90
2022-09-17T23:09:49.122Z,99.90
2022-09-17T23:12:15.806Z,99.90
2022-09-17T23:14:42.612Z,99.90
2022-09-17T23:17:09.306Z,99.90
2022-09-17T23:19:35.986Z,99.90
2022-09-17T23:22:02.755Z,99.90
2022-09-17T23:24:29.587Z,99.90
2022-09-17T23:26:56.273Z,99.90
2022-09-17T23:29:22.979Z,99.90
2022-09-17T23:31:50.705Z,99.90
2022-09-17T23:34:17.442Z,99.90
2022-09-17T23:36:44.158Z,99.90
2022-09-17T23:39:11.292Z,99.90
2022-09-17T23:41:39.202Z,99.90
2022-09-17T23:44:12.060Z,99.90
2022-09-17T23:46:40.728Z,99.90
2022-09-17T23:49:07.468Z,99.90
2022-09-17T23:51:36.574Z,99.90
2022-09-17T23:54:03.862Z,99.90
2022-09-17T23:56:30.694Z,99.90
2022-09-17T23:58:59.393Z,99.90
